createdAt,value
2018-11-04T00:00:19.040Z,129.00
2018-11-04T00:02:48.201Z,118.77
2018-11-04T00:05:17.184Z,126.73
2018-11-04T00:07:47.565Z,159.70
2018-11-04T00:10:16.160Z,152.97
2018-11-04T00:12:44.846Z,136.80
2018-11-04T00:15:13.465Z,120.80
2018-11-04T00:17:42.110Z,116.67
2018-11-04T00:20:14.031Z,139.33
2018-11-04T00:26:13.400Z,112.63
2018-11-04T00:28:42.027Z,215.60
2018-11-04T00:31:10.665Z,135.20
2018-11-04T00:33:39.264Z,120.40
2018-11-04T00:36:07.977Z,179.37
2018-11-04T00:38:36.649Z,113.10
2018-11-04T00:41:05.715Z,117.03
2018-11-04T00:43:34.292Z,133.60
2018-11-04T00:46:02.962Z,234.00
2018-11-04T00:48:31.638Z,137.43
2018-11-04T00:51:00.984Z,111.87
2018-11-04T00:53:30.530Z,164.60
2018-11-04T00:55:59.158Z,167.50
2018-11-04T00:58:27.865Z,125.90
2018-11-04T01:00:56.515Z,205.63
2018-11-04T01:03:25.415Z,119.63
2018-11-04T01:05:53.987Z,176.67
2018-11-04T01:08:22.606Z,248.70
2018-11-04T01:10:51.207Z,159.20
2018-11-04T01:13:20.094Z,128.73
2018-11-04T01:15:49.658Z,220.37
2018-11-04T01:18:18.255Z,138.40
2018-11-04T01:20:46.918Z,121.70
2018-11-04T01:23:15.589Z,111.17
2018-11-04T01:25:44.263Z,146.33
2018-11-04T01:28:13.942Z,166.77
2018-11-04T01:30:42.541Z,137.73
2018-11-04T01:33:11.627Z,242.73
2018-11-04T01:35:40.313Z,160.97
2018-11-04T01:38:09.238Z,136.43
2018-11-04T01:40:38.168Z,211.97
2018-11-04T01:43:07.583Z,137.90
2018-11-04T01:45:36.223Z,154.87
2018-11-04T01:48:06.253Z,159.90
2018-11-04T01:54:12.346Z,150.50
2018-11-04T01:56:41.782Z,140.30
2018-11-04T01:59:10.450Z,123.60
2018-11-04T02:01:39.062Z,141.40
2018-11-04T02:04:07.655Z,107.93
2018-11-04T02:10:08.008Z,172.00
2018-11-04T02:12:37.019Z,98.33
2018-11-04T02:15:06.136Z,140.90
2018-11-04T02:17:34.819Z,97.53
2018-11-04T02:20:04.255Z,126.10
2018-11-04T02:22:32.841Z,130.10
2018-11-04T02:25:01.465Z,145.17
2018-11-04T02:27:30.101Z,83.67
2018-11-04T02:29:58.768Z,80.17
2018-11-04T02:32:28.211Z,136.30
2018-11-04T02:34:57.025Z,89.07
2018-11-04T02:37:25.583Z,79.40
2018-11-04T02:39:54.211Z,97.57
2018-11-04T02:42:22.774Z,73.93
2018-11-04T02:44:51.342Z,85.30
2018-11-04T02:47:20.026Z,79.13
2018-11-04T02:49:49.584Z,84.30
2018-11-04T02:52:18.419Z,93.53
2018-11-04T02:54:47.738Z,86.73
2018-11-04T02:57:17.038Z,92.87
2018-11-04T02:59:45.679Z,105.80
2018-11-04T03:02:14.389Z,76.67
2018-11-04T03:04:43.083Z,83.37
2018-11-04T03:07:11.769Z,134.13
2018-11-04T03:09:40.385Z,84.77
2018-11-04T03:12:08.938Z,83.43
2018-11-04T03:14:37.511Z,137.33
2018-11-04T03:17:06.327Z,85.83
2018-11-04T03:19:35.696Z,102.43
2018-11-04T03:22:04.448Z,93.37
2018-11-04T03:24:33.272Z,71.43
2018-11-04T03:27:01.815Z,77.57
2018-11-04T03:29:30.479Z,69.73
2018-11-04T03:31:59.096Z,64.47
2018-11-04T03:34:27.643Z,67.37
2018-11-04T03:36:56.300Z,68.30
2018-11-04T03:39:25.229Z,70.03
2018-11-04T03:41:53.815Z,59.37
2018-11-04T03:44:22.400Z,53.73
2018-11-04T03:46:50.956Z,57.40
2018-11-04T03:49:19.483Z,57.10
2018-11-04T03:52:09.048Z,53.87
2018-11-04T03:54:37.851Z,48.17
2018-11-04T03:57:06.736Z,52.70
2018-11-04T03:59:35.664Z,49.90
2018-11-04T04:02:04.310Z,54.13
2018-11-04T04:04:33.128Z,48.43
2018-11-04T04:07:01.695Z,50.57
2018-11-04T04:09:30.400Z,51.43
2018-11-04T04:11:59.030Z,46.97
2018-11-04T04:14:27.640Z,40.10
2018-11-04T04:16:56.245Z,41.80
2018-11-04T04:19:25.079Z,48.60
2018-11-04T04:21:54.435Z,38.67
2018-11-04T04:24:23.037Z,47.97
2018-11-04T04:26:51.565Z,42.03
2018-11-04T04:29:20.977Z,48.50
2018-11-04T04:31:49.566Z,51.87
2018-11-04T04:34:20.242Z,46.60
2018-11-04T04:36:48.842Z,42.37
2018-11-04T04:39:17.451Z,38.80
2018-11-04T04:41:46.665Z,49.67
2018-11-04T04:44:15.292Z,48.07
2018-11-04T04:46:43.808Z,61.10
2018-11-04T04:49:12.744Z,61.17
2018-11-04T04:51:41.293Z,68.17
2018-11-04T04:54:09.838Z,58.80
2018-11-04T04:56:38.351Z,55.13
2018-11-04T04:59:07.083Z,59.33
2018-11-04T05:01:35.610Z,55.07
2018-11-04T05:04:04.154Z,61.47
2018-11-04T05:06:32.622Z,49.33
2018-11-04T05:09:01.106Z,54.80
2018-11-04T05:11:29.609Z,59.70
2018-11-04T05:13:58.066Z,55.77
2018-11-04T05:16:26.627Z,59.27
2018-11-04T05:18:55.105Z,56.13
2018-11-04T05:21:23.587Z,47.97
2018-11-04T05:23:52.075Z,47.63
2018-11-04T05:26:20.580Z,52.97
2018-11-04T05:28:49.029Z,52.10
2018-11-04T05:31:17.501Z,45.60
2018-11-04T05:33:46.027Z,47.53
2018-11-04T05:37:02.439Z,52.23
2018-11-04T05:39:31.256Z,51.83
2018-11-04T05:41:59.982Z,50.27
2018-11-04T05:44:28.864Z,59.70
2018-11-04T05:46:57.486Z,56.27
2018-11-04T05:49:26.163Z,57.50
2018-11-04T05:51:54.793Z,58.83
2018-11-04T05:54:23.713Z,48.27
2018-11-04T05:56:52.258Z,54.37
2018-11-04T05:59:20.906Z,61.10
2018-11-04T06:01:50.368Z,54.33
2018-11-04T06:04:19.137Z,54.43
2018-11-04T06:06:47.747Z,82.90
2018-11-04T06:09:16.319Z,54.97
2018-11-04T06:11:45.216Z,56.83
2018-11-04T06:14:13.797Z,52.00
2018-11-04T06:16:42.432Z,57.83
2018-11-04T06:19:11.049Z,49.10
2018-11-04T06:21:40.223Z,52.83
2018-11-04T06:24:09.653Z,67.10
2018-11-04T06:26:41.625Z,55.80
2018-11-04T06:29:14.722Z,51.70
2018-11-04T06:31:43.591Z,61.60
2018-11-04T06:34:12.285Z,57.50
2018-11-04T06:36:43.254Z,62.17
2018-11-04T06:39:12.416Z,75.53
2018-11-04T06:41:42.903Z,70.87
2018-11-04T06:44:13.209Z,62.30
2018-11-04T06:46:42.941Z,54.47
2018-11-04T06:49:11.551Z,48.90
2018-11-04T06:51:43.229Z,55.77
2018-11-04T06:54:12.634Z,51.43
2018-11-04T06:56:41.182Z,57.60
2018-11-04T06:59:09.746Z,52.23
2018-11-04T07:01:38.349Z,53.03
2018-11-04T07:04:23.341Z,51.33
2018-11-04T07:06:53.353Z,52.00
2018-11-04T07:09:22.016Z,51.57
2018-11-04T07:11:52.916Z,43.63
2018-11-04T07:14:22.690Z,65.33
2018-11-04T07:16:51.763Z,46.33
2018-11-04T07:19:20.337Z,45.30
2018-11-04T07:21:48.979Z,42.30
2018-11-04T07:24:18.307Z,36.93
2018-11-04T07:26:46.957Z,37.33
2018-11-04T07:29:15.539Z,34.80
2018-11-04T07:31:47.994Z,38.33
2018-11-04T07:34:16.538Z,36.87
2018-11-04T07:36:45.108Z,37.30
2018-11-04T07:39:14.773Z,39.43
2018-11-04T07:41:46.413Z,33.67
2018-11-04T07:44:15.051Z,32.97
2018-11-04T07:46:44.528Z,39.03
2018-11-04T07:49:13.048Z,49.80
2018-11-04T07:51:41.669Z,37.27
2018-11-04T07:54:10.102Z,38.83
2018-11-04T07:56:38.627Z,37.33
2018-11-04T07:59:07.305Z,44.33
2018-11-04T08:01:35.777Z,36.27
2018-11-04T08:04:04.483Z,47.07
2018-11-04T08:06:33.041Z,34.60
2018-11-04T08:09:01.556Z,34.77
2018-11-04T08:11:30.094Z,34.87
2018-11-04T08:13:58.593Z,36.77
2018-11-04T08:16:27.114Z,34.90
2018-11-04T08:18:55.590Z,32.47
2018-11-04T08:21:24.262Z,31.70
2018-11-04T08:23:52.686Z,30.50
2018-11-04T08:26:21.177Z,32.03
2018-11-04T08:28:49.638Z,30.13
2018-11-04T08:31:18.153Z,32.70
2018-11-04T08:33:46.756Z,32.80
2018-11-04T08:36:15.263Z,33.57
2018-11-04T08:38:43.774Z,28.53
2018-11-04T08:41:12.348Z,31.33
2018-11-04T08:43:40.874Z,31.73
2018-11-04T08:46:09.326Z,31.37
2018-11-04T08:48:37.793Z,29.80
2018-11-04T08:51:06.407Z,28.43
2018-11-04T08:53:34.942Z,26.70
2018-11-04T08:56:03.499Z,29.03
2018-11-04T08:58:31.978Z,27.93
2018-11-04T09:01:00.437Z,24.87
2018-11-04T09:03:28.918Z,26.60
2018-11-04T09:05:57.434Z,23.30
2018-11-04T09:08:25.918Z,26.77
2018-11-04T09:10:54.374Z,25.07
2018-11-04T09:13:22.841Z,24.53
2018-11-04T09:15:51.364Z,19.97
2018-11-04T09:18:19.872Z,22.43
2018-11-04T09:20:48.351Z,24.73
2018-11-04T09:23:16.841Z,22.83
2018-11-04T09:25:45.479Z,22.47
2018-11-04T09:28:14.046Z,20.70
2018-11-04T09:30:42.603Z,25.87
2018-11-04T09:33:11.471Z,21.27
2018-11-04T09:35:40.159Z,21.47
2018-11-04T09:38:08.565Z,22.00
2018-11-04T09:40:37.260Z,19.97
2018-11-04T09:43:05.887Z,20.37
2018-11-04T09:45:34.416Z,21.03
2018-11-04T09:48:03.047Z,22.00
2018-11-04T09:50:31.627Z,24.80
2018-11-04T09:53:00.206Z,19.93
2018-11-04T09:55:28.858Z,17.80
2018-11-04T09:57:57.583Z,20.50
2018-11-04T10:00:26.571Z,22.10
2018-11-04T10:02:55.185Z,23.73
2018-11-04T10:05:23.786Z,21.93
2018-11-04T10:07:52.537Z,21.07
2018-11-04T10:10:21.217Z,23.07
2018-11-04T10:12:49.869Z,20.83
2018-11-04T10:15:19.462Z,24.30
2018-11-04T10:17:48.190Z,23.60
2018-11-04T10:20:17.081Z,22.73
2018-11-04T10:22:45.471Z,24.87
2018-11-04T10:25:14.140Z,22.90
2018-11-04T10:27:43.306Z,20.80
2018-11-04T10:30:14.631Z,21.33
2018-11-04T10:32:43.542Z,23.57
2018-11-04T10:35:12.293Z,21.80
2018-11-04T10:37:42.083Z,24.97
2018-11-04T10:40:24.853Z,23.07
2018-11-04T10:42:54.173Z,22.00
2018-11-04T10:45:23.670Z,24.63
2018-11-04T10:47:52.622Z,20.43
2018-11-04T10:50:23.327Z,24.50
2018-11-04T10:52:52.902Z,23.80
2018-11-04T10:55:22.684Z,23.73
2018-11-04T10:57:51.348Z,24.10
2018-11-04T11:00:25.046Z,23.80
2018-11-04T11:02:54.709Z,22.93
2018-11-04T11:05:24.495Z,23.03
2018-11-04T11:07:53.152Z,20.77
2018-11-04T11:10:21.913Z,20.67
2018-11-04T11:12:51.532Z,22.27
2018-11-04T11:15:20.368Z,24.23
2018-11-04T11:17:49.110Z,24.63
2018-11-04T11:20:18.071Z,22.50
2018-11-04T11:22:46.830Z,26.40
2018-11-04T11:25:15.606Z,22.73
2018-11-04T11:27:44.636Z,24.00
2018-11-04T11:30:13.419Z,24.63
2018-11-04T11:32:42.130Z,26.83
2018-11-04T11:35:11.037Z,26.43
2018-11-04T11:37:39.834Z,24.97
2018-11-04T11:40:09.543Z,23.70
2018-11-04T11:42:38.743Z,25.20
2018-11-04T11:45:08.167Z,24.03
2018-11-04T11:47:36.746Z,22.77
2018-11-04T11:50:05.962Z,21.73
2018-11-04T11:52:34.656Z,21.53
2018-11-04T11:55:03.305Z,23.17
2018-11-04T11:57:31.950Z,21.97
2018-11-04T12:00:00.481Z,21.23
2018-11-04T12:02:29.013Z,21.37
2018-11-04T12:04:57.535Z,20.47
2018-11-04T12:07:26.097Z,24.20
2018-11-04T12:09:54.661Z,28.60
2018-11-04T12:12:23.287Z,24.03
2018-11-04T12:14:51.867Z,23.53
2018-11-04T12:17:20.503Z,23.27
2018-11-04T12:19:48.999Z,29.33
2018-11-04T12:22:17.632Z,28.93
2018-11-04T12:24:46.150Z,24.93
2018-11-04T12:27:14.686Z,25.80
2018-11-04T12:29:43.288Z,29.47
2018-11-04T12:32:12.027Z,26.87
2018-11-04T12:34:40.635Z,25.07
2018-11-04T12:37:09.152Z,30.37
2018-11-04T12:39:37.776Z,31.67
2018-11-04T12:42:06.534Z,32.67
2018-11-04T12:44:35.084Z,33.90
2018-11-04T12:47:03.585Z,39.63
2018-11-04T12:49:32.113Z,37.30
2018-11-04T12:52:00.646Z,37.87
2018-11-04T12:54:29.666Z,37.17
2018-11-04T12:56:58.420Z,34.57
2018-11-04T12:59:27.556Z,33.10
2018-11-04T13:01:56.126Z,29.80
2018-11-04T13:04:24.692Z,31.00
2018-11-04T13:06:53.208Z,37.33
2018-11-04T13:09:21.869Z,33.93
2018-11-04T13:11:50.570Z,38.27
2018-11-04T13:14:19.153Z,31.87
2018-11-04T13:16:47.837Z,30.57
2018-11-04T13:19:16.489Z,32.20
2018-11-04T13:21:45.046Z,32.70
2018-11-04T13:24:13.688Z,31.53
2018-11-04T13:26:42.361Z,36.53
2018-11-04T13:29:10.950Z,34.30
2018-11-04T13:31:39.420Z,44.20
2018-11-04T13:34:08.042Z,36.10
2018-11-04T13:36:36.650Z,36.77
2018-11-04T13:39:07.544Z,34.60
2018-11-04T13:41:36.145Z,36.07
2018-11-04T13:44:04.706Z,37.27
2018-11-04T13:46:33.283Z,42.93
2018-11-04T13:49:02.251Z,37.67
2018-11-04T13:51:30.959Z,37.50
2018-11-04T13:53:59.497Z,40.80
2018-11-04T13:56:28.035Z,45.40
2018-11-04T13:58:56.726Z,45.60
2018-11-04T14:01:25.240Z,80.07
2018-11-04T14:03:53.860Z,48.60
2018-11-04T14:06:22.511Z,47.40
2018-11-04T14:08:51.034Z,43.83
2018-11-04T14:11:19.558Z,46.87
2018-11-04T14:13:48.162Z,45.67
2018-11-04T14:16:16.666Z,45.07
2018-11-04T14:18:45.230Z,56.80
2018-11-04T14:21:13.793Z,61.43
2018-11-04T14:23:42.474Z,52.57
2018-11-04T14:26:10.925Z,70.07
2018-11-04T14:28:39.512Z,53.80
2018-11-04T14:31:08.235Z,53.67
2018-11-04T14:33:37.386Z,57.63
2018-11-04T14:36:06.453Z,59.30
2018-11-04T14:38:38.075Z,61.67
2018-11-04T14:41:07.090Z,73.27
2018-11-04T14:43:35.644Z,72.43
2018-11-04T14:46:04.457Z,84.80
2018-11-04T14:48:32.976Z,93.57
2018-11-04T14:51:01.438Z,82.67
2018-11-04T14:53:30.957Z,76.73
2018-11-04T14:56:02.639Z,80.87
2018-11-04T14:58:31.621Z,90.77
2018-11-04T15:01:00.172Z,81.63
2018-11-04T15:03:29.518Z,97.93
2018-11-04T15:05:58.126Z,92.77
2018-11-04T15:08:26.708Z,93.20
2018-11-04T15:10:55.477Z,109.00
2018-11-04T15:13:23.958Z,105.07
2018-11-04T15:15:52.478Z,110.53
2018-11-04T15:18:21.022Z,111.93
2018-11-04T15:20:50.476Z,107.17
2018-11-04T15:23:19.874Z,112.40
2018-11-04T15:25:48.482Z,123.23
2018-11-04T15:28:17.029Z,105.90
2018-11-04T15:30:46.412Z,129.23
2018-11-04T15:33:14.980Z,128.87
2018-11-04T15:35:43.491Z,133.17
2018-11-04T15:38:13.965Z,156.33
2018-11-04T15:40:42.557Z,142.17
2018-11-04T15:43:11.648Z,122.00
2018-11-04T15:45:41.998Z,121.50
2018-11-04T15:48:10.534Z,142.47
2018-11-04T15:50:39.066Z,151.50
2018-11-04T15:53:07.595Z,144.60
2018-11-04T15:55:36.098Z,138.27
2018-11-04T15:58:05.127Z,121.90
2018-11-04T16:00:33.763Z,115.43
2018-11-04T16:03:05.948Z,121.13
2018-11-04T16:05:34.531Z,111.40
2018-11-04T16:08:02.925Z,121.53
2018-11-04T16:10:31.428Z,137.40
2018-11-04T16:12:59.933Z,130.00
2018-11-04T16:15:28.513Z,121.20
2018-11-04T16:17:57.104Z,126.97
2018-11-04T16:20:25.720Z,121.70
2018-11-04T16:22:54.238Z,142.50
2018-11-04T16:25:22.737Z,130.77
2018-11-04T16:27:51.399Z,121.33
2018-11-04T16:30:19.891Z,136.67
2018-11-04T16:32:48.363Z,134.77
2018-11-04T16:35:16.924Z,132.53
2018-11-04T16:37:45.811Z,135.70
2018-11-04T16:40:14.278Z,124.20
2018-11-04T16:42:42.845Z,126.90
2018-11-04T16:45:13.506Z,105.77
2018-11-04T16:47:42.062Z,108.67
2018-11-04T16:50:11.441Z,123.23
2018-11-04T16:52:40.070Z,121.53
2018-11-04T16:55:09.504Z,111.13
2018-11-04T16:57:38.148Z,102.53
2018-11-04T17:00:07.812Z,105.37
2018-11-04T17:02:36.643Z,107.33
2018-11-04T17:05:05.519Z,108.67
2018-11-04T17:07:33.998Z,102.87
2018-11-04T17:10:02.562Z,95.90
2018-11-04T17:12:31.159Z,113.43
2018-11-04T17:14:59.650Z,114.97
2018-11-04T17:17:28.320Z,95.73
2018-11-04T17:19:56.805Z,107.80
2018-11-04T17:22:25.305Z,113.73
2018-11-04T17:24:53.816Z,99.40
2018-11-04T17:27:22.360Z,107.23
2018-11-04T17:29:51.044Z,117.80
2018-11-04T17:32:19.574Z,108.10
2018-11-04T17:34:48.194Z,107.20
2018-11-04T17:37:16.803Z,100.10
2018-11-04T17:39:45.263Z,108.77
2018-11-04T17:42:13.789Z,112.83
2018-11-04T17:44:42.397Z,110.97
2018-11-04T17:47:10.863Z,110.00
2018-11-04T17:49:39.491Z,98.67
2018-11-04T17:52:08.205Z,100.17
2018-11-04T17:54:36.805Z,102.73
2018-11-04T17:57:05.517Z,101.10
2018-11-04T17:59:34.064Z,107.47
2018-11-04T18:02:03.127Z,103.97
2018-11-04T18:04:32.007Z,101.93
2018-11-04T18:07:00.606Z,96.53
2018-11-04T18:09:29.208Z,92.63
2018-11-04T18:11:57.994Z,89.67
2018-11-04T18:14:26.583Z,104.93
2018-11-04T18:16:55.132Z,104.27
2018-11-04T18:19:23.682Z,123.80
2018-11-04T18:21:52.288Z,102.70
2018-11-04T18:24:20.950Z,95.67
2018-11-04T18:26:49.614Z,107.87
2018-11-04T18:29:18.218Z,109.40
2018-11-04T18:31:46.978Z,114.13
2018-11-04T18:34:15.652Z,109.43
2018-11-04T18:36:44.962Z,112.23
2018-11-04T18:39:13.603Z,120.00
2018-11-04T18:41:42.660Z,127.90
2018-11-04T18:44:11.303Z,148.57
2018-11-04T18:46:39.932Z,140.90
2018-11-04T18:49:09.152Z,152.27
2018-11-04T18:51:43.771Z,147.30
2018-11-04T18:54:12.729Z,141.80
2018-11-04T18:56:41.428Z,134.90
2018-11-04T18:59:10.227Z,161.63
2018-11-04T19:01:38.899Z,154.03
2018-11-04T19:04:07.762Z,182.13
2018-11-04T19:06:36.380Z,161.53
2018-11-04T19:09:07.367Z,161.50
2018-11-04T19:11:36.017Z,167.43
2018-11-04T19:14:04.529Z,160.50
2018-11-04T19:16:33.263Z,143.13
2018-11-04T19:19:02.127Z,167.87
2018-11-04T19:21:31.508Z,177.23
2018-11-04T19:24:00.144Z,152.47
2018-11-04T19:26:29.006Z,168.73
2018-11-04T19:28:57.690Z,145.03
2018-11-04T19:31:27.239Z,151.83
2018-11-04T19:33:55.903Z,160.23
2018-11-04T19:36:24.866Z,160.60
2018-11-04T19:38:53.360Z,163.80
2018-11-04T19:41:21.998Z,166.70
2018-11-04T19:43:50.640Z,182.53
2018-11-04T19:46:19.364Z,197.37
2018-11-04T19:48:48.172Z,198.57
2018-11-04T19:51:16.757Z,214.97
2018-11-04T19:53:45.352Z,206.33
2018-11-04T19:56:14.167Z,194.27
2018-11-04T19:58:42.911Z,197.00
2018-11-04T20:01:11.921Z,186.40
2018-11-04T20:03:40.575Z,177.90
2018-11-04T20:06:09.285Z,175.90
2018-11-04T20:08:42.782Z,175.60
2018-11-04T20:11:11.476Z,198.07
2018-11-04T20:13:46.200Z,189.83
2018-11-04T20:16:14.928Z,180.27
2018-11-04T20:18:48.815Z,203.53
2018-11-04T20:21:17.354Z,212.80
2018-11-04T20:23:45.839Z,200.83
2018-11-04T20:26:15.523Z,208.17
2018-11-04T20:28:44.094Z,206.43
2018-11-04T20:31:17.879Z,217.37
2018-11-04T20:33:47.473Z,232.27
2018-11-04T20:36:16.066Z,231.53
2018-11-04T20:38:50.179Z,267.00
2018-11-04T20:41:24.128Z,265.30
2018-11-04T20:43:52.681Z,277.10
2018-11-04T20:46:22.147Z,317.70
2018-11-04T20:48:56.204Z,277.77
2018-11-04T20:51:24.863Z,230.20
2018-11-04T20:53:54.189Z,230.57
2018-11-04T20:56:28.691Z,279.40
2018-11-04T20:58:57.599Z,239.03
2018-11-04T21:01:27.035Z,213.03
2018-11-04T21:03:56.416Z,200.03
2018-11-04T21:06:24.991Z,184.13
2018-11-04T21:08:53.583Z,180.50
2018-11-04T21:11:22.980Z,211.87
2018-11-04T21:13:51.868Z,173.73
2018-11-04T21:16:21.551Z,176.20
2018-11-04T21:18:50.144Z,165.30
2018-11-04T21:21:19.366Z,198.87
2018-11-04T21:23:47.967Z,189.47
2018-11-04T21:26:16.516Z,169.97
2018-11-04T21:28:45.228Z,182.07
2018-11-04T21:31:14.680Z,189.90
2018-11-04T21:33:44.844Z,166.13
2018-11-04T21:36:14.265Z,144.57
2018-11-04T21:38:42.912Z,150.07
2018-11-04T21:41:11.456Z,149.80
2018-11-04T21:43:40.446Z,168.10
2018-11-04T21:46:08.968Z,187.63
2018-11-04T21:48:37.780Z,154.20
2018-11-04T21:51:06.454Z,161.47
2018-11-04T21:53:36.691Z,155.50
2018-11-04T21:56:06.044Z,163.67
2018-11-04T21:58:34.648Z,159.77
2018-11-04T22:01:03.380Z,154.07
2018-11-04T22:03:33.063Z,183.37
2018-11-04T22:06:01.667Z,169.63
2018-11-04T22:08:34.355Z,170.60
2018-11-04T22:11:02.958Z,178.63
2018-11-04T22:13:31.690Z,176.07
2018-11-04T22:16:02.868Z,156.37
2018-11-04T22:18:31.572Z,155.57
2018-11-04T22:21:00.264Z,131.67
2018-11-04T22:23:28.839Z,145.93
2018-11-04T22:25:59.140Z,153.87
2018-11-04T22:28:27.860Z,148.37
2018-11-04T22:30:57.784Z,137.57
2018-11-04T22:33:27.226Z,147.33
2018-11-04T22:35:55.867Z,136.27
2018-11-04T22:38:25.404Z,126.27
2018-11-04T22:40:54.166Z,136.37
2018-11-04T22:43:22.824Z,109.87
2018-11-04T22:45:52.141Z,109.47
2018-11-04T22:48:22.101Z,116.47
2018-11-04T22:50:50.738Z,109.83
2018-11-04T22:53:19.760Z,112.77
2018-11-04T22:55:49.712Z,105.30
2018-11-04T22:58:19.184Z,102.70
2018-11-04T23:00:52.331Z,109.93
2018-11-04T23:03:20.935Z,104.80
2018-11-04T23:05:49.832Z,120.77
2018-11-04T23:08:20.634Z,113.90
2018-11-04T23:10:50.566Z,117.23
2018-11-04T23:13:19.640Z,118.97
2018-11-04T23:15:48.329Z,112.53
2018-11-04T23:18:17.867Z,106.97
2018-11-04T23:20:46.642Z,109.93
2018-11-04T23:23:16.133Z,120.40
2018-11-04T23:25:44.790Z,121.20
2018-11-04T23:28:16.764Z,115.57
2018-11-04T23:30:45.950Z,119.63
2018-11-04T23:33:16.445Z,122.10
2018-11-04T23:35:46.018Z,126.73
2018-11-04T23:38:15.005Z,119.30
2018-11-04T23:40:43.684Z,123.73
2018-11-04T23:43:13.276Z,112.70
2018-11-04T23:45:42.224Z,120.40
2018-11-04T23:48:10.841Z,117.93
2018-11-04T23:50:41.580Z,112.33
2018-11-04T23:53:11.429Z,104.07
2018-11-04T23:55:40.115Z,113.50
2018-11-04T23:58:10.617Z,109.33
